Normanna, Texas
Current Conditions -  °F | °C
As of 8:55 PM on Tuesday 21 Oct 2014 (Local Time) from KBEA Reporting Station
Clear Clear  
Wind Chill: 23°   Ceiling: Unl
Heat Index: 23°   Visibility: 10mi
Dew Point: 18°   Wind: 7mph
Humidity: 75%   Direction: 110°ESE
Pressure: 30"   Gusts: NA
Location:  28.53°N, 97.78°W
Report Text: KBEA 220155Z AUTO 11006KT 10SM CLR 23/18 A3000 RMK AO2 T02280181
Loading
Personal Weather Stations






























Interactive Weather Map
Tropical Storm Tracking
New forecast layout! Learn more

10-Day Weather Forecast

Advertisements
Track Severe Weather on mobile